sensor_id;sensor_type;location;lat;lon;timestamp;pressure;altitude;pressure_sealevel;temperature
61595;BMP280;47397;48.194;11.632;2023-09-19T00:00:40;95596.44;;;16.40
61595;BMP280;47397;48.194;11.632;2023-09-19T00:01:40;95593.88;;;16.40
61595;BMP280;47397;48.194;11.632;2023-09-19T00:02:41;95592.81;;;16.44
61595;BMP280;47397;48.194;11.632;2023-09-19T00:03:41;95599.34;;;16.49
61595;BMP280;47397;48.194;11.632;2023-09-19T00:04:41;95602.75;;;16.50
61595;BMP280;47397;48.194;11.632;2023-09-19T00:05:42;95606.81;;;16.54
61595;BMP280;47397;48.194;11.632;2023-09-19T00:06:42;95597.38;;;16.54
61595;BMP280;47397;48.194;11.632;2023-09-19T00:07:43;95598.72;;;16.62
61595;BMP280;47397;48.194;11.632;2023-09-19T00:08:43;95602.03;;;16.64
61595;BMP280;47397;48.194;11.632;2023-09-19T00:09:44;95596.97;;;16.62
61595;BMP280;47397;48.194;11.632;2023-09-19T00:10:45;95602.63;;;16.69
61595;BMP280;47397;48.194;11.632;2023-09-19T00:11:46;95597.34;;;16.72
61595;BMP280;47397;48.194;11.632;2023-09-19T00:12:46;95623.84;;;16.72
61595;BMP280;47397;48.194;11.632;2023-09-19T00:13:47;95602.34;;;16.75
61595;BMP280;47397;48.194;11.632;2023-09-19T00:14:48;95604.16;;;16.73
61595;BMP280;47397;48.194;11.632;2023-09-19T00:15:48;95628.69;;;16.78
61595;BMP280;47397;48.194;11.632;2023-09-19T00:16:48;95600.34;;;16.80
61595;BMP280;47397;48.194;11.632;2023-09-19T00:17:49;95595.41;;;16.77
61595;BMP280;47397;48.194;11.632;2023-09-19T00:18:49;95612.00;;;16.70
61595;BMP280;47397;48.194;11.632;2023-09-19T00:19:50;95628.84;;;16.75
61595;BMP280;47397;48.194;11.632;2023-09-19T00:20:50;95601.34;;;16.77
61595;BMP280;47397;48.194;11.632;2023-09-19T00:21:51;95596.13;;;16.79
61595;BMP280;47397;48.194;11.632;2023-09-19T00:22:51;95604.34;;;16.85
61595;BMP280;47397;48.194;11.632;2023-09-19T00:23:52;95595.72;;;16.86
61595;BMP280;47397;48.194;11.632;2023-09-19T00:24:52;95603.50;;;16.85
61595;BMP280;47397;48.194;11.632;2023-09-19T00:25:58;95594.81;;;16.87
61595;BMP280;47397;48.194;11.632;2023-09-19T00:26:58;95600.13;;;16.84
61595;BMP280;47397;48.194;11.632;2023-09-19T00:27:59;95601.03;;;16.83
61595;BMP280;47397;48.194;11.632;2023-09-19T00:28:59;95601.69;;;16.87
61595;BMP280;47397;48.194;11.632;2023-09-19T00:30:00;95596.63;;;16.85
61595;BMP280;47397;48.194;11.632;2023-09-19T00:31:00;95598.22;;;16.88
61595;BMP280;47397;48.194;11.632;2023-09-19T00:32:01;95598.28;;;16.86
61595;BMP280;47397;48.194;11.632;2023-09-19T00:33:01;95600.84;;;16.86
61595;BMP280;47397;48.194;11.632;2023-09-19T00:34:01;95638.63;;;16.84
61595;BMP280;47397;48.194;11.632;2023-09-19T00:35:02;95612.03;;;16.85
61595;BMP280;47397;48.194;11.632;2023-09-19T00:36:03;95610.22;;;16.87
61595;BMP280;47397;48.194;11.632;2023-09-19T00:37:04;95608.63;;;16.85
61595;BMP280;47397;48.194;11.632;2023-09-19T00:38:04;95610.22;;;16.87
61595;BMP280;47397;48.194;11.632;2023-09-19T00:39:04;95610.78;;;16.93
61595;BMP280;47397;48.194;11.632;2023-09-19T00:40:06;95611.47;;;16.96
61595;BMP280;47397;48.194;11.632;2023-09-19T00:41:08;95613.78;;;17.01
61595;BMP280;47397;48.194;11.632;2023-09-19T00:42:08;95613.19;;;16.96
61595;BMP280;47397;48.194;11.632;2023-09-19T00:43:09;95628.50;;;16.97
61595;BMP280;47397;48.194;11.632;2023-09-19T00:44:09;95602.84;;;16.97
61595;BMP280;47397;48.194;11.632;2023-09-19T00:45:11;95614.19;;;16.93
61595;BMP280;47397;48.194;11.632;2023-09-19T00:46:11;95610.03;;;16.91
61595;BMP280;47397;48.194;11.632;2023-09-19T00:47:12;95602.84;;;16.81
61595;BMP280;47397;48.194;11.632;2023-09-19T00:48:12;95603.69;;;16.82
61595;BMP280;47397;48.194;11.632;2023-09-19T00:49:13;95612.94;;;16.84
61595;BMP280;47397;48.194;11.632;2023-09-19T00:50:15;95607.06;;;16.82
61595;BMP280;47397;48.194;11.632;2023-09-19T00:51:16;95611.28;;;16.83
61595;BMP280;47397;48.194;11.632;2023-09-19T00:52:17;95614.59;;;16.85
61595;BMP280;47397;48.194;11.632;2023-09-19T00:53:19;95614.69;;;16.84
61595;BMP280;47397;48.194;11.632;2023-09-19T00:54:20;95613.78;;;16.85
61595;BMP280;47397;48.194;11.632;2023-09-19T00:55:21;95618.06;;;16.84
61595;BMP280;47397;48.194;11.632;2023-09-19T00:56:23;95620.41;;;16.89
61595;BMP280;47397;48.194;11.632;2023-09-19T00:57:23;95649.56;;;16.88
61595;BMP280;47397;48.194;11.632;2023-09-19T00:58:24;95620.31;;;16.91
61595;BMP280;47397;48.194;11.632;2023-09-19T00:59:24;95634.81;;;16.92
61595;BMP280;47397;48.194;11.632;2023-09-19T01:00:25;95625.94;;;16.97
61595;BMP280;47397;48.194;11.632;2023-09-19T01:01:25;95632.00;;;16.96
61595;BMP280;47397;48.194;11.632;2023-09-19T01:02:27;95633.72;;;16.96
61595;BMP280;47397;48.194;11.632;2023-09-19T01:03:28;95627.84;;;16.94
61595;BMP280;47397;48.194;11.632;2023-09-19T01:04:29;95632.81;;;16.97
61595;BMP280;47397;48.194;11.632;2023-09-19T01:05:31;95637.28;;;16.93
61595;BMP280;47397;48.194;11.632;2023-09-19T01:06:31;95632.31;;;16.90
61595;BMP280;47397;48.194;11.632;2023-09-19T01:07:32;95633.47;;;16.84
61595;BMP280;47397;48.194;11.632;2023-09-19T01:08:32;95633.47;;;16.84
61595;BMP280;47397;48.194;11.632;2023-09-19T01:09:33;95631.00;;;16.83
61595;BMP280;47397;48.194;11.632;2023-09-19T01:10:33;95629.66;;;16.76
61595;BMP280;47397;48.194;11.632;2023-09-19T01:11:40;95632.59;;;16.68
61595;BMP280;47397;48.194;11.632;2023-09-19T01:12:50;95633.22;;;16.73
61595;BMP280;47397;48.194;11.632;2023-09-19T01:13:56;95644.22;;;16.75
61595;BMP280;47397;48.194;11.632;2023-09-19T01:15:01;95638.41;;;16.72
61595;BMP280;47397;48.194;11.632;2023-09-19T01:16:13;95638.34;;;16.73
61595;BMP280;47397;48.194;11.632;2023-09-19T01:17:23;95639.09;;;16.75
61595;BMP280;47397;48.194;11.632;2023-09-19T01:18:30;95657.81;;;16.77
61595;BMP280;47397;48.194;11.632;2023-09-19T01:21:08;95631.53;;;16.72
61595;BMP280;47397;48.194;11.632;2023-09-19T01:22:14;95643.16;;;16.79
61595;BMP280;47397;48.194;11.632;2023-09-19T01:23:21;95633.81;;;16.78
61595;BMP280;47397;48.194;11.632;2023-09-19T01:24:41;95639.84;;;16.77
61595;BMP280;47397;48.194;11.632;2023-09-19T01:26:05;95645.22;;;16.73
61595;BMP280;47397;48.194;11.632;2023-09-19T01:27:20;95649.28;;;16.77
61595;BMP280;47397;48.194;11.632;2023-09-19T01:28:31;95652.84;;;16.74
61595;BMP280;47397;48.194;11.632;2023-09-19T01:29:37;95651.09;;;16.75
61595;BMP280;47397;48.194;11.632;2023-09-19T01:30:43;95654.63;;;16.72
61595;BMP280;47397;48.194;11.632;2023-09-19T01:31:44;95650.28;;;16.74
61595;BMP280;47397;48.194;11.632;2023-09-19T01:32:45;95664.78;;;16.75
61595;BMP280;47397;48.194;11.632;2023-09-19T01:33:56;95680.91;;;16.77
61595;BMP280;47397;48.194;11.632;2023-09-19T01:34:57;95655.16;;;16.79
61595;BMP280;47397;48.194;11.632;2023-09-19T01:35:57;95662.28;;;16.74
61595;BMP280;47397;48.194;11.632;2023-09-19T01:36:58;95658.81;;;16.75
61595;BMP280;47397;48.194;11.632;2023-09-19T01:37:58;95658.94;;;16.72
61595;BMP280;47397;48.194;11.632;2023-09-19T01:38:59;95663.03;;;16.76
61595;BMP280;47397;48.194;11.632;2023-09-19T01:40:03;95665.53;;;16.77
61595;BMP280;47397;48.194;11.632;2023-09-19T01:41:11;95662.94;;;16.77
61595;BMP280;47397;48.194;11.632;2023-09-19T01:42:20;95661.22;;;16.78
61595;BMP280;47397;48.194;11.632;2023-09-19T01:43:27;95661.97;;;16.80
61595;BMP280;47397;48.194;11.632;2023-09-19T01:44:33;95667.75;;;16.83
61595;BMP280;47397;48.194;11.632;2023-09-19T01:45:45;95665.28;;;16.82
61595;BMP280;47397;48.194;11.632;2023-09-19T01:46:47;95667.00;;;16.81
61595;BMP280;47397;48.194;11.632;2023-09-19T01:47:50;95665.44;;;16.79
61595;BMP280;47397;48.194;11.632;2023-09-19T01:48:56;95668.00;;;16.79
61595;BMP280;47397;48.194;11.632;2023-09-19T01:50:02;95668.59;;;16.84
61595;BMP280;47397;48.194;11.632;2023-09-19T01:51:08;95676.22;;;16.85
61595;BMP280;47397;48.194;11.632;2023-09-19T01:52:11;95672.16;;;16.81
61595;BMP280;47397;48.194;11.632;2023-09-19T01:53:17;95674.88;;;16.78
61595;BMP280;47397;48.194;11.632;2023-09-19T01:54:26;95672.22;;;16.80
61595;BMP280;47397;48.194;11.632;2023-09-19T01:55:28;95678.09;;;16.82
61595;BMP280;47397;48.194;11.632;2023-09-19T01:56:34;95675.53;;;16.82
61595;BMP280;47397;48.194;11.632;2023-09-19T01:57:42;95665.53;;;16.77
61595;BMP280;47397;48.194;11.632;2023-09-19T01:58:46;95665.34;;;16.80
61595;BMP280;47397;48.194;11.632;2023-09-19T01:59:50;95672.16;;;16.81
61595;BMP280;47397;48.194;11.632;2023-09-19T02:00:55;95669.91;;;16.75
61595;BMP280;47397;48.194;11.632;2023-09-19T02:01:57;95667.34;;;16.75
61595;BMP280;47397;48.194;11.632;2023-09-19T02:02:59;95668.31;;;16.73
61595;BMP280;47397;48.194;11.632;2023-09-19T02:04:00;95670.03;;;16.72
61595;BMP280;47397;48.194;11.632;2023-09-19T02:05:00;95681.00;;;16.76
61595;BMP280;47397;48.194;11.632;2023-09-19T02:06:01;95686.88;;;16.78
61595;BMP280;47397;48.194;11.632;2023-09-19T02:07:02;95667.09;;;16.80
61595;BMP280;47397;48.194;11.632;2023-09-19T02:08:03;95703.19;;;16.77
61595;BMP280;47397;48.194;11.632;2023-09-19T02:09:04;95680.91;;;16.77
61595;BMP280;47397;48.194;11.632;2023-09-19T02:10:05;95684.97;;;16.81
61595;BMP280;47397;48.194;11.632;2023-09-19T02:11:05;95668.75;;;16.81
61595;BMP280;47397;48.194;11.632;2023-09-19T02:12:06;95672.22;;;16.80
61595;BMP280;47397;48.194;11.632;2023-09-19T02:13:06;95665.44;;;16.79
61595;BMP280;47397;48.194;11.632;2023-09-19T02:14:07;95669.75;;;16.78
61595;BMP280;47397;48.194;11.632;2023-09-19T02:15:08;95670.66;;;16.77
61595;BMP280;47397;48.194;11.632;2023-09-19T02:16:10;95668.84;;;16.79
61595;BMP280;47397;48.194;11.632;2023-09-19T02:17:11;95669.50;;;16.83
61595;BMP280;47397;48.194;11.632;2023-09-19T02:18:11;95675.47;;;16.83
61595;BMP280;47397;48.194;11.632;2023-09-19T02:19:12;95701.03;;;16.85
61595;BMP280;47397;48.194;11.632;2023-09-19T02:20:12;95673.63;;;16.85
61595;BMP280;47397;48.194;11.632;2023-09-19T02:21:13;95670.31;;;16.83
61595;BMP280;47397;48.194;11.632;2023-09-19T02:22:13;95672.88;;;16.83
61595;BMP280;47397;48.194;11.632;2023-09-19T02:23:14;95665.94;;;16.85
61595;BMP280;47397;48.194;11.632;2023-09-19T02:24:15;95666.84;;;16.84
61595;BMP280;47397;48.194;11.632;2023-09-19T02:25:15;95665.19;;;16.83
61595;BMP280;47397;48.194;11.632;2023-09-19T02:26:16;95672.06;;;16.83
61595;BMP280;47397;48.194;11.632;2023-09-19T02:27:16;95658.81;;;16.75
61595;BMP280;47397;48.194;11.632;2023-09-19T02:28:17;95668.75;;;16.81
61595;BMP280;47397;48.194;11.632;2023-09-19T02:29:17;95665.19;;;16.83
61595;BMP280;47397;48.194;11.632;2023-09-19T02:30:18;95666.94;;;16.83
61595;BMP280;47397;48.194;11.632;2023-09-19T02:31:19;95668.50;;;16.85
61595;BMP280;47397;48.194;11.632;2023-09-19T02:32:20;95660.88;;;16.84
61595;BMP280;47397;48.194;11.632;2023-09-19T02:33:20;95662.47;;;16.86
61595;BMP280;47397;48.194;11.632;2023-09-19T02:34:21;95668.50;;;16.85
61595;BMP280;47397;48.194;11.632;2023-09-19T02:35:22;95663.44;;;16.84
61595;BMP280;47397;48.194;11.632;2023-09-19T02:36:22;95669.41;;;16.84
61595;BMP280;47397;48.194;11.632;2023-09-19T02:37:23;95669.41;;;16.84
61595;BMP280;47397;48.194;11.632;2023-09-19T02:38:23;95676.53;;;16.79
61595;BMP280;47397;48.194;11.632;2023-09-19T02:39:24;95676.69;;;16.76
61595;BMP280;47397;48.194;11.632;2023-09-19T02:40:24;95671.72;;;16.73
61595;BMP280;47397;48.194;11.632;2023-09-19T02:41:25;95669.75;;;16.78
61595;BMP280;47397;48.194;11.632;2023-09-19T02:42:26;95673.59;;;16.70
61595;BMP280;47397;48.194;11.632;2023-09-19T02:43:27;95699.16;;;16.71
61595;BMP280;47397;48.194;11.632;2023-09-19T02:44:27;95680.25;;;16.74
61595;BMP280;47397;48.194;11.632;2023-09-19T02:45:28;95679.94;;;16.80
61595;BMP280;47397;48.194;11.632;2023-09-19T02:46:30;95677.59;;;16.75
61595;BMP280;47397;48.194;11.632;2023-09-19T02:47:30;95676.53;;;16.79
61595;BMP280;47397;48.194;11.632;2023-09-19T02:48:31;95676.53;;;16.79
61595;BMP280;47397;48.194;11.632;2023-09-19T02:49:31;95682.88;;;16.72
61595;BMP280;47397;48.194;11.632;2023-09-19T02:50:32;95688.91;;;16.71
61595;BMP280;47397;48.194;11.632;2023-09-19T02:51:32;95703.63;;;16.68
61595;BMP280;47397;48.194;11.632;2023-09-19T02:52:33;95684.59;;;16.72
61595;BMP280;47397;48.194;11.632;2023-09-19T02:53:33;95688.00;;;16.72
61595;BMP280;47397;48.194;11.632;2023-09-19T02:54:34;95675.31;;;16.69
61595;BMP280;47397;48.194;11.632;2023-09-19T02:55:35;95716.22;;;16.72
61595;BMP280;47397;48.194;11.632;2023-09-19T02:56:35;95676.84;;;16.73
61595;BMP280;47397;48.194;11.632;2023-09-19T02:57:36;95679.34;;;16.75
61595;BMP280;47397;48.194;11.632;2023-09-19T02:58:36;95676.84;;;16.73
61595;BMP280;47397;48.194;11.632;2023-09-19T02:59:37;95681.00;;;16.76
61595;BMP280;47397;48.194;11.632;2023-09-19T03:00:38;95719.69;;;16.71
61595;BMP280;47397;48.194;11.632;2023-09-19T03:01:40;95689.59;;;16.75
61595;BMP280;47397;48.194;11.632;2023-09-19T03:02:43;95683.03;;;16.69
61595;BMP280;47397;48.194;11.632;2023-09-19T03:03:43;95713.06;;;16.67
61595;BMP280;47397;48.194;11.632;2023-09-19T03:04:44;95695.84;;;16.69
61595;BMP280;47397;48.194;11.632;2023-09-19T03:05:44;95688.84;;;16.73
61595;BMP280;47397;48.194;11.632;2023-09-19T03:06:45;95686.13;;;16.76
61595;BMP280;47397;48.194;11.632;2023-09-19T03:07:46;95679.41;;;16.73
61595;BMP280;47397;48.194;11.632;2023-09-19T03:08:47;95686.13;;;16.76
61595;BMP280;47397;48.194;11.632;2023-09-19T03:09:48;95685.13;;;16.78
61595;BMP280;47397;48.194;11.632;2023-09-19T03:10:48;95680.84;;;16.79
61595;BMP280;47397;48.194;11.632;2023-09-19T03:11:49;95681.59;;;16.81
61595;BMP280;47397;48.194;11.632;2023-09-19T03:12:50;95684.59;;;16.72
61595;BMP280;47397;48.194;11.632;2023-09-19T03:13:51;95685.66;;;16.68
61595;BMP280;47397;48.194;11.632;2023-09-19T03:14:52;95691.63;;;16.68
61595;BMP280;47397;48.194;11.632;2023-09-19T03:15:54;95687.88;;;16.75
61595;BMP280;47397;48.194;11.632;2023-09-19T03:16:56;95682.88;;;16.72
61595;BMP280;47397;48.194;11.632;2023-09-19T03:17:56;95681.19;;;16.71
61595;BMP280;47397;48.194;11.632;2023-09-19T03:18:57;95681.19;;;16.71
61595;BMP280;47397;48.194;11.632;2023-09-19T03:19:57;95681.91;;;16.75
61595;BMP280;47397;48.194;11.632;2023-09-19T03:20:57;95678.19;;;16.80
61595;BMP280;47397;48.194;11.632;2023-09-19T03:21:58;95685.22;;;16.77
61595;BMP280;47397;48.194;11.632;2023-09-19T03:22:59;95682.34;;;16.66
61595;BMP280;47397;48.194;11.632;2023-09-19T03:23:59;95690.88;;;16.66
61595;BMP280;47397;48.194;11.632;2023-09-19T03:24:59;95683.94;;;16.68
61595;BMP280;47397;48.194;11.632;2023-09-19T03:26:00;95684.59;;;16.72
61595;BMP280;47397;48.194;11.632;2023-09-19T03:27:01;95694.94;;;16.70
61595;BMP280;47397;48.194;11.632;2023-09-19T03:28:01;95688.16;;;16.69
61595;BMP280;47397;48.194;11.632;2023-09-19T03:29:03;95700.06;;;16.70
61595;BMP280;47397;48.194;11.632;2023-09-19T03:30:05;95688.84;;;16.73
61595;BMP280;47397;48.194;11.632;2023-09-19T03:31:06;95695.66;;;16.74
61595;BMP280;47397;48.194;11.632;2023-09-19T03:32:08;95690.88;;;16.66
61595;BMP280;47397;48.194;11.632;2023-09-19T03:33:09;95694.31;;;16.65
61595;BMP280;47397;48.194;11.632;2023-09-19T03:34:09;95701.13;;;16.66
61595;BMP280;47397;48.194;11.632;2023-09-19T03:35:10;95693.44;;;16.66
61595;BMP280;47397;48.194;11.632;2023-09-19T03:36:10;95700.00;;;16.72
61595;BMP280;47397;48.194;11.632;2023-09-19T03:37:11;95696.97;;;16.64
61595;BMP280;47397;48.194;11.632;2023-09-19T03:38:11;95695.31;;;16.63
61595;BMP280;47397;48.194;11.632;2023-09-19T03:39:12;95723.63;;;16.61
61595;BMP280;47397;48.194;11.632;2023-09-19T03:40:12;95697.66;;;16.67
61595;BMP280;47397;48.194;11.632;2023-09-19T03:41:13;95697.66;;;16.67
61595;BMP280;47397;48.194;11.632;2023-09-19T03:42:13;95705.38;;;16.67
61595;BMP280;47397;48.194;11.632;2023-09-19T03:43:14;95702.88;;;16.66
61595;BMP280;47397;48.194;11.632;2023-09-19T03:44:14;95699.25;;;16.70
61595;BMP280;47397;48.194;11.632;2023-09-19T03:45:15;95692.63;;;16.66
61595;BMP280;47397;48.194;11.632;2023-09-19T03:46:15;95700.97;;;16.69
61595;BMP280;47397;48.194;11.632;2023-09-19T03:47:17;95695.03;;;16.69
61595;BMP280;47397;48.194;11.632;2023-09-19T03:48:17;95700.16;;;16.69
61595;BMP280;47397;48.194;11.632;2023-09-19T03:49:18;95706.13;;;16.69
61595;BMP280;47397;48.194;11.632;2023-09-19T03:50:18;95701.91;;;16.68
61595;BMP280;47397;48.194;11.632;2023-09-19T03:51:18;95704.47;;;16.68
61595;BMP280;47397;48.194;11.632;2023-09-19T03:52:19;95698.50;;;16.68
61595;BMP280;47397;48.194;11.632;2023-09-19T03:53:19;95704.53;;;16.67
61595;BMP280;47397;48.194;11.632;2023-09-19T03:54:20;95713.06;;;16.67
61595;BMP280;47397;48.194;11.632;2023-09-19T03:55:20;95710.34;;;16.70
61595;BMP280;47397;48.194;11.632;2023-09-19T03:56:21;95718.78;;;16.72
61595;BMP280;47397;48.194;11.632;2023-09-19T03:57:21;95710.22;;;16.73
61595;BMP280;47397;48.194;11.632;2023-09-19T03:58:21;95706.66;;;16.76
61595;BMP280;47397;48.194;11.632;2023-09-19T03:59:22;95708.53;;;16.72
61595;BMP280;47397;48.194;11.632;2023-09-19T04:00:22;95701.44;;;16.77
61595;BMP280;47397;48.194;11.632;2023-09-19T04:01:23;95706.56;;;16.77
61595;BMP280;47397;48.194;11.632;2023-09-19T04:02:24;95708.31;;;16.77
61595;BMP280;47397;48.194;11.632;2023-09-19T04:03:25;95705.91;;;16.74
61595;BMP280;47397;48.194;11.632;2023-09-19T04:04:25;95701.59;;;16.74
61595;BMP280;47397;48.194;11.632;2023-09-19T04:05:26;95706.41;;;16.80
61595;BMP280;47397;48.194;11.632;2023-09-19T04:06:26;95706.34;;;16.82
61595;BMP280;47397;48.194;11.632;2023-09-19T04:07:26;95703.84;;;16.80
61595;BMP280;47397;48.194;11.632;2023-09-19T04:08:27;95704.59;;;16.82
61595;BMP280;47397;48.194;11.632;2023-09-19T04:09:27;95702.19;;;16.79
61595;BMP280;47397;48.194;11.632;2023-09-19T04:10:28;95705.09;;;16.73
61595;BMP280;47397;48.194;11.632;2023-09-19T04:11:28;95706.94;;;16.70
61595;BMP280;47397;48.194;11.632;2023-09-19T04:12:28;95708.59;;;16.71
61595;BMP280;47397;48.194;11.632;2023-09-19T04:13:29;95714.66;;;16.70
61595;BMP280;47397;48.194;11.632;2023-09-19T04:14:29;95705.22;;;16.70
61595;BMP280;47397;48.194;11.632;2023-09-19T04:15:30;95711.94;;;16.73
61595;BMP280;47397;48.194;11.632;2023-09-19T04:16:30;95715.25;;;16.75
61595;BMP280;47397;48.194;11.632;2023-09-19T04:17:32;95710.22;;;16.73
61595;BMP280;47397;48.194;11.632;2023-09-19T04:18:33;95714.66;;;16.70
61595;BMP280;47397;48.194;11.632;2023-09-19T04:19:33;95712.00;;;16.71
61595;BMP280;47397;48.194;11.632;2023-09-19T04:20:34;95710.41;;;16.69
61595;BMP280;47397;48.194;11.632;2023-09-19T04:21:34;95709.72;;;16.65
61595;BMP280;47397;48.194;11.632;2023-09-19T04:22:34;95717.13;;;16.71
61595;BMP280;47397;48.194;11.632;2023-09-19T04:23:35;95719.66;;;16.73
61595;BMP280;47397;48.194;11.632;2023-09-19T04:24:35;95726.50;;;16.72
61595;BMP280;47397;48.194;11.632;2023-09-19T04:25:35;95716.38;;;16.69
61595;BMP280;47397;48.194;11.632;2023-09-19T04:26:36;95720.13;;;16.62
61595;BMP280;47397;48.194;11.632;2023-09-19T04:27:36;95717.50;;;16.64
61595;BMP280;47397;48.194;11.632;2023-09-19T04:28:37;95723.34;;;16.67
61595;BMP280;47397;48.194;11.632;2023-09-19T04:29:37;95727.56;;;16.68
61595;BMP280;47397;48.194;11.632;2023-09-19T04:30:38;95724.91;;;16.70
61595;BMP280;47397;48.194;11.632;2023-09-19T04:31:38;95717.28;;;16.68
61595;BMP280;47397;48.194;11.632;2023-09-19T04:32:40;95722.25;;;16.71
61595;BMP280;47397;48.194;11.632;2023-09-19T04:33:40;95729.13;;;16.71
61595;BMP280;47397;48.194;11.632;2023-09-19T04:34:41;95758.00;;;16.76
61595;BMP280;47397;48.194;11.632;2023-09-19T04:35:41;95728.78;;;16.78
61595;BMP280;47397;48.194;11.632;2023-09-19T04:36:42;95726.38;;;16.75
61595;BMP280;47397;48.194;11.632;2023-09-19T04:37:42;95729.00;;;16.74
61595;BMP280;47397;48.194;11.632;2023-09-19T04:38:43;95732.31;;;16.76
61595;BMP280;47397;48.194;11.632;2023-09-19T04:39:43;95729.97;;;16.71
61595;BMP280;47397;48.194;11.632;2023-09-19T04:40:43;95740.19;;;16.73
61595;BMP280;47397;48.194;11.632;2023-09-19T04:41:44;95734.06;;;16.75
61595;BMP280;47397;48.194;11.632;2023-09-19T04:42:44;95736.47;;;16.78
61595;BMP280;47397;48.194;11.632;2023-09-19T04:43:45;95736.38;;;16.80
61595;BMP280;47397;48.194;11.632;2023-09-19T04:44:45;95740.03;;;16.76
61595;BMP280;47397;48.194;11.632;2023-09-19T04:45:45;95742.44;;;16.79
61595;BMP280;47397;48.194;11.632;2023-09-19T04:46:46;95766.13;;;16.84
61595;BMP280;47397;48.194;11.632;2023-09-19T04:47:48;95734.66;;;16.80
61595;BMP280;47397;48.194;11.632;2023-09-19T04:48:48;95743.34;;;16.78
61595;BMP280;47397;48.194;11.632;2023-09-19T04:49:49;95769.91;;;16.77
61595;BMP280;47397;48.194;11.632;2023-09-19T04:50:49;95746.91;;;16.75
61595;BMP280;47397;48.194;11.632;2023-09-19T04:51:50;95743.34;;;16.78
61595;BMP280;47397;48.194;11.632;2023-09-19T04:52:50;95748.72;;;16.73
61595;BMP280;47397;48.194;11.632;2023-09-19T04:53:51;95749.31;;;16.78
61595;BMP280;47397;48.194;11.632;2023-09-19T04:54:51;95753.69;;;16.76
61595;BMP280;47397;48.194;11.632;2023-09-19T04:55:52;95755.28;;;16.79
61595;BMP280;47397;48.194;11.632;2023-09-19T04:56:52;95753.59;;;16.78
61595;BMP280;47397;48.194;11.632;2023-09-19T04:57:53;95785.91;;;16.82
61595;BMP280;47397;48.194;11.632;2023-09-19T04:58:53;95757.00;;;16.78
61595;BMP280;47397;48.194;11.632;2023-09-19T04:59:54;95754.44;;;16.78
61595;BMP280;47397;48.194;11.632;2023-09-19T05:00:54;95757.00;;;16.78
61595;BMP280;47397;48.194;11.632;2023-09-19T05:01:55;95756.34;;;16.75
61595;BMP280;47397;48.194;11.632;2023-09-19T05:02:57;95756.34;;;16.75
61595;BMP280;47397;48.194;11.632;2023-09-19T05:03:57;95761.38;;;16.76
61595;BMP280;47397;48.194;11.632;2023-09-19T05:04:57;95763.03;;;16.77
61595;BMP280;47397;48.194;11.632;2023-09-19T05:05:58;95769.91;;;16.77
61595;BMP280;47397;48.194;11.632;2023-09-19T05:06:58;95763.72;;;16.81
61595;BMP280;47397;48.194;11.632;2023-09-19T05:07:59;95764.63;;;16.80
61595;BMP280;47397;48.194;11.632;2023-09-19T05:08:59;95771.41;;;16.81
61595;BMP280;47397;48.194;11.632;2023-09-19T05:10:00;95763.72;;;16.81
61595;BMP280;47397;48.194;11.632;2023-09-19T05:11:02;95779.88;;;16.83
61595;BMP280;47397;48.194;11.632;2023-09-19T05:12:02;95782.34;;;16.84
61595;BMP280;47397;48.194;11.632;2023-09-19T05:13:03;95792.69;;;16.83
61595;BMP280;47397;48.194;11.632;2023-09-19T05:14:04;95771.34;;;16.82
61595;BMP280;47397;48.194;11.632;2023-09-19T05:15:05;95780.69;;;16.83
61595;BMP280;47397;48.194;11.632;2023-09-19T05:16:06;95774.16;;;16.78
61595;BMP280;47397;48.194;11.632;2023-09-19T05:17:06;95781.84;;;16.78
61595;BMP280;47397;48.194;11.632;2023-09-19T05:18:08;95790.13;;;16.83
61595;BMP280;47397;48.194;11.632;2023-09-19T05:19:08;95790.97;;;16.83
61595;BMP280;47397;48.194;11.632;2023-09-19T05:20:10;95786.97;;;16.78
61595;BMP280;47397;48.194;11.632;2023-09-19T05:21:11;95783.44;;;16.80
61595;BMP280;47397;48.194;11.632;2023-09-19T05:22:11;95784.56;;;16.75
61595;BMP280;47397;48.194;11.632;2023-09-19T05:23:11;95783.72;;;16.74
61595;BMP280;47397;48.194;11.632;2023-09-19T05:24:12;95786.97;;;16.78
61595;BMP280;47397;48.194;11.632;2023-09-19T05:25:12;95804.94;;;16.78
61595;BMP280;47397;48.194;11.632;2023-09-19T05:26:13;95788.72;;;16.77
61595;BMP280;47397;48.194;11.632;2023-09-19T05:27:13;95809.25;;;16.77
61595;BMP280;47397;48.194;11.632;2023-09-19T05:28:14;95791.56;;;16.71
61595;BMP280;47397;48.194;11.632;2023-09-19T05:29:14;95796.69;;;16.71
61595;BMP280;47397;48.194;11.632;2023-09-19T05:30:15;95786.50;;;16.70
61595;BMP280;47397;48.194;11.632;2023-09-19T05:31:15;95788.94;;;16.73
61595;BMP280;47397;48.194;11.632;2023-09-19T05:32:16;95794.91;;;16.73
61595;BMP280;47397;48.194;11.632;2023-09-19T05:33:18;95795.78;;;16.72
61595;BMP280;47397;48.194;11.632;2023-09-19T05:34:18;95794.06;;;16.73
61595;BMP280;47397;48.194;11.632;2023-09-19T05:35:19;95792.38;;;16.72
61595;BMP280;47397;48.194;11.632;2023-09-19T05:36:19;95793.91;;;16.76
61595;BMP280;47397;48.194;11.632;2023-09-19T05:37:19;95796.56;;;16.74
61595;BMP280;47397;48.194;11.632;2023-09-19T05:38:20;95791.56;;;16.71
61595;BMP280;47397;48.194;11.632;2023-09-19T05:39:20;95792.63;;;16.67
61595;BMP280;47397;48.194;11.632;2023-09-19T05:40:22;95796.56;;;16.74
61595;BMP280;47397;48.194;11.632;2023-09-19T05:41:23;95797.31;;;16.76
61595;BMP280;47397;48.194;11.632;2023-09-19T05:42:23;95796.84;;;16.68
61595;BMP280;47397;48.194;11.632;2023-09-19T05:43:24;95808.78;;;16.69
61595;BMP280;47397;48.194;11.632;2023-09-19T05:44:24;95826.88;;;16.66
61595;BMP280;47397;48.194;11.632;2023-09-19T05:45:24;95804.47;;;16.70
61595;BMP280;47397;48.194;11.632;2023-09-19T05:46:25;95805.44;;;16.67
61595;BMP280;47397;48.194;11.632;2023-09-19T05:47:25;95806.97;;;16.71
61595;BMP280;47397;48.194;11.632;2023-09-19T05:48:27;95812.09;;;16.71
61595;BMP280;47397;48.194;11.632;2023-09-19T05:49:27;95799.34;;;16.70
61595;BMP280;47397;48.194;11.632;2023-09-19T05:50:28;95803.56;;;16.71